Pagina principale
METAR-TAF:

METAR-TAF

Aeroporti :

Aeroporto di Piacenza-San Damiano

Piacenza, Italia

latitudine: 44-55N, longitudine: 009-44E, altezza: 134 m

Osservazione

Il bollettino è stato emesso 58 minuti fa, alle 10:55 UTC
Vento 2 kt da ovest
Temperature 3°C
Umidità 100%
Pressione 1017 hPa
Visibilità: 2500 m
Poco nuvoloso ad un'altezza di 2500 ft
Nuvoloso ad un'altezza di 7000 ft
foschia

METAR: LIMS 211055Z 28002KT 2500 BR FEW025 BKN070 03/03 Q1017 RMK OVC VIS MIN 2500 WIND THR30 27002KT YLO

Ora: 12:53 (11:53 UTC)


TAF: mancante

Osservazioni e previsioni meteorologiche di più di 4000 aeroporti (messaggi METAR e TAF).

Le stazioni disponibili sono rappresentate dai dischi gialli e rossi sulla carta.

Puntare il mouse per vedere il nome della stazione.

Clicca sopra per visualizzare le osservazioni e previsioni meteorologiche.

Per cambiare la mappa : fare clic sui pulsanti verdi con una croce nera per ingrandire, il pulsante verde con un trattino per diminuire, o sulla freccia verde per le mappe adiacenti.


METAR-TAF: